Time;durP1;ratioP1;P1;durP2;ratioP2;P2;SDS_P1;SDS_P2;PMS_P1;PMS_P2;Temp;Humidity;BMP_temperature;BMP_pressure;BME280_temperature;BME280_humidity;BME280_pressure;Samples;Min_cycle;Max_cycle;Signal;HPM_P1;HPM_P2
2023/10/24 00:00:09;;;;;;;1.35;1.35;;;8.00;99.90;;;;;;5010014;28;20321;-79
2023/10/24 00:02:36;;;;;;;2.38;2.25;;;8.00;99.90;;;;;;5021049;28;20216;-81
2023/10/24 00:05:04;;;;;;;2.20;2.10;;;8.00;99.90;;;;;;5029706;28;20205;-82
2023/10/24 00:07:32;;;;;;;1.55;1.45;;;8.00;99.90;;;;;;5037932;28;20213;-80
2023/10/24 00:09:58;;;;;;;3.00;2.42;;;8.00;99.90;;;;;;5024717;28;20449;-82
2023/10/24 00:12:26;;;;;;;2.25;2.15;;;8.20;99.90;;;;;;5027083;28;20364;-81
2023/10/24 00:14:55;;;;;;;0.90;0.90;;;8.10;99.90;;;;;;5024210;28;20309;-79
2023/10/24 00:17:23;;;;;;;1.38;1.35;;;8.10;99.90;;;;;;5025592;28;20232;-81
2023/10/24 00:19:50;;;;;;;4.35;4.13;;;8.20;99.90;;;;;;5022904;28;20209;-80
2023/10/24 00:22:17;;;;;;;1.67;1.58;;;8.10;99.90;;;;;;5025550;28;20450;-80
2023/10/24 00:24:46;;;;;;;3.40;3.15;;;8.10;99.90;;;;;;5023365;28;20220;-81
2023/10/24 00:27:13;;;;;;;2.72;2.55;;;8.60;99.90;;;;;;5031891;28;20208;-82
2023/10/24 00:29:40;;;;;;;2.25;2.15;;;8.30;99.90;;;;;;5028933;28;20277;-80
2023/10/24 00:32:07;;;;;;;3.08;2.97;;;8.30;99.90;;;;;;5023542;28;20556;-78
2023/10/24 00:34:34;;;;;;;3.15;2.70;;;8.40;99.90;;;;;;5030626;28;20395;-79
2023/10/24 00:37:01;;;;;;;2.65;2.55;;;8.30;99.90;;;;;;5031295;28;20271;-79
2023/10/24 00:39:28;;;;;;;2.65;2.55;;;8.30;99.90;;;;;;5020202;28;20268;-80
2023/10/24 00:41:55;;;;;;;2.78;2.58;;;8.30;99.90;;;;;;5029761;28;20268;-81
2023/10/24 00:44:22;;;;;;;3.20;3.00;;;8.40;99.90;;;;;;5019327;28;20215;-80
2023/10/24 00:46:49;;;;;;;2.50;2.40;;;8.30;99.90;;;;;;5027641;28;20221;-77
2023/10/24 00:49:17;;;;;;;2.53;2.42;;;8.50;99.90;;;;;;5023715;28;20549;-79
2023/10/24 00:51:44;;;;;;;4.72;3.67;;;8.60;99.90;;;;;;5031087;28;20209;-79
2023/10/24 00:54:12;;;;;;;1.40;1.38;;;8.70;99.90;;;;;;5022059;28;20268;-77
2023/10/24 00:56:41;;;;;;;5.95;5.45;;;8.60;99.90;;;;;;5019660;28;20652;-83
2023/10/24 00:59:08;;;;;;;1.25;1.25;;;8.70;99.90;;;;;;5019255;28;20212;-79
2023/10/24 01:01:35;;;;;;;1.63;1.52;;;8.70;99.90;;;;;;5020235;28;20209;-80
2023/10/24 01:04:03;;;;;;;2.08;1.98;;;8.80;99.90;;;;;;5027530;28;20209;-81
2023/10/24 01:06:30;;;;;;;1.25;1.25;;;8.70;99.90;;;;;;5022588;28;20216;-81
2023/10/24 01:08:57;;;;;;;4.85;4.57;;;8.70;99.90;;;;;;5030430;28;20244;-80
2023/10/24 01:11:26;;;;;;;2.20;2.00;;;8.70;99.90;;;;;;5037031;28;20212;-83
2023/10/24 01:13:54;;;;;;;1.95;1.85;;;8.70;99.90;;;;;;5020788;28;20264;-80
2023/10/24 01:16:21;;;;;;;3.08;2.85;;;8.70;99.90;;;;;;5019361;28;20225;-80
2023/10/24 01:18:48;;;;;;;4.47;4.18;;;8.70;99.90;;;;;;5019631;28;20209;-79
2023/10/24 01:21:15;;;;;;;1.20;1.20;;;8.70;99.90;;;;;;5027052;28;20269;-82
2023/10/24 01:23:43;;;;;;;4.43;4.13;;;8.70;99.90;;;;;;5032740;28;20256;-83
2023/10/24 01:26:13;;;;;;;4.95;4.57;;;8.70;99.90;;;;;;5028190;28;20490;-81
2023/10/24 01:28:40;;;;;;;3.47;3.28;;;8.70;99.90;;;;;;5019663;28;20788;-80
2023/10/24 01:31:07;;;;;;;1.92;1.85;;;8.70;99.90;;;;;;5020404;28;20209;-84
2023/10/24 01:33:34;;;;;;;3.42;1.88;;;8.80;99.90;;;;;;5018715;28;20221;-79
2023/10/24 01:36:01;;;;;;;3.88;3.67;;;8.60;99.90;;;;;;5020620;28;20213;-78
2023/10/24 01:38:28;;;;;;;1.23;1.23;;;8.60;99.90;;;;;;5025198;28;20293;-88
2023/10/24 01:40:55;;;;;;;3.80;3.65;;;8.60;99.90;;;;;;5027441;28;20267;-78
2023/10/24 01:43:22;;;;;;;2.20;2.08;;;8.60;99.90;;;;;;5024748;28;20269;-81
2023/10/24 01:45:49;;;;;;;1.48;1.42;;;8.60;99.90;;;;;;5029097;28;20273;-78
2023/10/24 01:48:18;;;;;;;4.28;4.03;;;8.60;99.90;;;;;;5013261;28;20198;-83
2023/10/24 01:50:46;;;;;;;0.85;0.85;;;8.60;99.90;;;;;;5031333;28;20457;-79
2023/10/24 01:53:13;;;;;;;2.65;2.55;;;8.60;99.90;;;;;;5026824;28;20276;-79
2023/10/24 01:55:40;;;;;;;2.00;1.90;;;8.50;99.90;;;;;;5026012;28;20256;-79
2023/10/24 01:58:07;;;;;;;4.13;3.10;;;8.50;99.90;;;;;;5028532;28;20225;-79
2023/10/24 02:00:34;;;;;;;1.55;1.45;;;8.50;99.90;;;;;;5034898;28;20215;-81
2023/10/24 02:03:02;;;;;;;1.33;1.27;;;8.50;99.90;;;;;;5022802;28;20205;-80
2023/10/24 02:05:29;;;;;;;1.13;1.13;;;8.50;99.90;;;;;;5037629;28;20209;-81
2023/10/24 02:07:55;;;;;;;1.42;1.38;;;8.50;99.90;;;;;;5027358;28;20213;-82
2023/10/24 02:10:23;;;;;;;4.30;4.05;;;8.50;99.90;;;;;;5030197;28;20268;-81
2023/10/24 02:12:50;;;;;;;2.65;2.47;;;8.50;99.90;;;;;;5029752;28;20209;-81
2023/10/24 02:15:17;;;;;;;3.00;2.80;;;8.60;99.90;;;;;;5029411;28;20272;-82
2023/10/24 02:17:44;;;;;;;1.27;1.27;;;8.50;99.90;;;;;;5018491;28;20234;-83
2023/10/24 02:20:11;;;;;;;0.60;0.60;;;8.60;99.90;;;;;;5017869;28;20210;-81
2023/10/24 02:22:38;;;;;;;1.83;1.73;;;8.50;99.90;;;;;;5031301;28;20323;-79
2023/10/24 02:25:06;;;;;;;4.43;4.13;;;8.50;99.90;;;;;;5019985;28;20289;-80
2023/10/24 02:27:34;;;;;;;2.83;2.72;;;8.50;99.90;;;;;;5024190;28;20241;-79
2023/10/24 02:30:02;;;;;;;2.00;1.88;;;8.50;99.90;;;;;;5022274;28;20300;-79
2023/10/24 02:32:29;;;;;;;2.55;2.38;;;8.50;99.90;;;;;;5018272;28;20261;-80
2023/10/24 02:34:56;;;;;;;3.67;3.50;;;8.50;99.90;;;;;;5021597;28;20205;-81
2023/10/24 02:37:23;;;;;;;1.77;1.67;;;8.50;99.90;;;;;;5024160;28;20577;-79
2023/10/24 02:39:50;;;;;;;3.67;3.38;;;8.50;99.90;;;;;;5034952;28;20205;-79
2023/10/24 02:42:17;;;;;;;1.45;1.35;;;8.50;99.90;;;;;;5034147;28;20232;-80
2023/10/24 02:44:49;;;;;;;2.05;1.95;;;8.50;99.90;;;;;;5037384;28;20271;-80
2023/10/24 02:47:16;;;;;;;3.65;3.17;;;8.60;99.90;;;;;;5032258;28;20284;-81
2023/10/24 02:49:43;;;;;;;1.40;1.40;;;8.60;99.90;;;;;;5017863;28;20209;-80
2023/10/24 02:52:10;;;;;;;1.80;1.70;;;8.60;99.90;;;;;;5028163;28;20205;-80
2023/10/24 02:54:37;;;;;;;3.22;3.03;;;8.50;99.90;;;;;;5030382;28;20251;-80
2023/10/24 02:57:04;;;;;;;4.60;4.30;;;8.60;99.90;;;;;;5032643;28;20260;-84
2023/10/24 02:59:31;;;;;;;2.55;2.45;;;8.50;99.90;;;;;;5017627;28;20361;-80
2023/10/24 03:01:58;;;;;;;2.25;2.15;;;8.60;99.90;;;;;;5033746;28;20243;-85
2023/10/24 03:04:25;;;;;;;1.77;1.77;;;8.60;99.90;;;;;;5021384;28;20696;-79
2023/10/24 03:06:52;;;;;;;0.98;0.98;;;8.60;99.90;;;;;;5024616;28;20217;-80
2023/10/24 03:09:19;;;;;;;2.22;2.13;;;8.50;99.90;;;;;;5031633;28;20231;-82
2023/10/24 03:11:46;;;;;;;2.35;2.25;;;8.60;99.90;;;;;;5025671;28;20460;-79
2023/10/24 03:14:13;;;;;;;2.25;2.15;;;8.60;99.90;;;;;;5028228;28;20199;-79
2023/10/24 03:16:41;;;;;;;0.80;0.80;;;8.50;99.90;;;;;;5032634;28;20264;-80
2023/10/24 03:19:08;;;;;;;0.98;0.98;;;8.50;99.90;;;;;;5025664;28;20624;-80
2023/10/24 03:21:35;;;;;;;1.90;1.83;;;8.60;99.90;;;;;;5026024;28;20255;-80
2023/10/24 03:24:02;;;;;;;2.30;2.17;;;8.50;99.90;;;;;;5032484;28;20260;-79
2023/10/24 03:26:29;;;;;;;7.00;4.68;;;8.50;99.90;;;;;;5022956;28;20240;-79
2023/10/24 03:28:56;;;;;;;3.17;2.97;;;8.60;99.90;;;;;;5025133;28;20292;-82
2023/10/24 03:31:23;;;;;;;1.77;1.65;;;8.60;99.90;;;;;;5018024;28;20236;-80
2023/10/24 03:33:50;;;;;;;2.08;1.98;;;8.60;99.90;;;;;;5027068;28;20271;-82
2023/10/24 03:36:17;;;;;;;2.53;2.25;;;8.60;99.90;;;;;;5023361;28;20272;-80
2023/10/24 03:38:44;;;;;;;2.55;2.42;;;8.60;99.90;;;;;;5023119;28;20201;-80
2023/10/24 03:41:11;;;;;;;2.25;1.95;;;8.60;99.90;;;;;;5028133;28;20215;-79
2023/10/24 03:43:47;;;;;;;1.92;1.77;;;8.60;99.90;;;;;;5029534;28;20596;-80
2023/10/24 03:46:15;;;;;;;3.30;3.10;;;8.60;99.90;;;;;;5022487;28;20656;-80
2023/10/24 03:48:42;;;;;;;3.53;3.33;;;8.60;99.90;;;;;;5015848;28;20216;-80
2023/10/24 03:51:09;;;;;;;3.15;2.15;;;8.60;99.90;;;;;;5029522;28;20229;-80
2023/10/24 03:53:38;;;;;;;2.88;2.78;;;8.50;99.90;;;;;;5044178;28;20205;-79
2023/10/24 03:56:05;;;;;;;2.65;2.13;;;8.50;99.90;;;;;;5039963;28;20194;-79
2023/10/24 03:58:32;;;;;;;1.30;1.30;;;8.50;99.90;;;;;;5038324;28;20228;-82
2023/10/24 04:01:06;;;;;;;2.08;1.98;;;8.40;99.90;;;;;;5039342;28;20429;-81
2023/10/24 04:03:34;;;;;;;2.13;2.03;;;8.30;99.90;;;;;;5021439;28;20198;-79
2023/10/24 04:06:02;;;;;;;1.40;1.40;;;8.30;99.90;;;;;;5019180;28;20205;-79
2023/10/24 04:08:29;;;;;;;2.30;2.20;;;8.30;99.90;;;;;;5013134;28;20232;-81
2023/10/24 04:10:56;;;;;;;3.10;2.88;;;8.30;99.90;;;;;;5036309;28;20206;-81
2023/10/24 04:13:23;;;;;;;1.40;1.40;;;8.30;99.90;;;;;;5034360;28;20247;-80
2023/10/24 04:15:57;;;;;;;1.27;1.25;;;8.30;99.90;;;;;;5039775;28;20251;-80
2023/10/24 04:18:25;;;;;;;0.73;0.73;;;8.40;99.90;;;;;;5024144;28;20248;-80
2023/10/24 04:20:52;;;;;;;5.15;2.33;;;8.40;99.90;;;;;;5038732;28;20228;-81
2023/10/24 04:23:19;;;;;;;3.58;3.40;;;8.40;99.90;;;;;;5026656;28;20272;-82
2023/10/24 04:25:46;;;;;;;1.00;1.00;;;8.40;99.90;;;;;;5025039;28;20685;-79
2023/10/24 04:28:13;;;;;;;1.35;1.25;;;8.40;99.90;;;;;;5026630;28;20217;-80
2023/10/24 04:30:40;;;;;;;2.72;2.63;;;8.40;99.90;;;;;;5021248;28;20228;-80
2023/10/24 04:33:08;;;;;;;1.20;1.20;;;8.40;99.90;;;;;;5027245;28;20217;-78
2023/10/24 04:35:43;;;;;;;0.63;0.63;;;8.50;99.90;;;;;;5028059;28;20232;-79
2023/10/24 04:38:10;;;;;;;1.77;1.67;;;8.50;99.90;;;;;;5020314;28;20237;-80
2023/10/24 04:40:38;;;;;;;1.45;1.35;;;8.60;99.90;;;;;;5026883;28;20279;-80
2023/10/24 04:43:09;;;;;;;2.05;1.95;;;8.60;99.90;;;;;;5019810;28;20202;-80
2023/10/24 04:45:37;;;;;;;2.33;2.22;;;8.60;99.90;;;;;;5030668;28;20399;-79
2023/10/24 04:48:04;;;;;;;3.15;2.95;;;8.60;99.90;;;;;;5032763;28;20204;-79
2023/10/24 04:50:36;;;;;;;1.08;1.08;;;8.60;99.90;;;;;;5016101;28;20202;-79
2023/10/24 04:53:04;;;;;;;19.60;2.42;;;8.60;99.90;;;;;;5026765;28;20425;-81
2023/10/24 04:55:31;;;;;;;1.98;1.88;;;8.70;99.90;;;;;;5029352;28;20243;-79
2023/10/24 04:58:00;;;;;;;4.65;4.13;;;8.70;99.90;;;;;;5027458;28;20242;-80
2023/10/24 05:00:27;;;;;;;2.13;2.03;;;8.70;99.90;;;;;;5020942;28;20236;-82
2023/10/24 05:02:54;;;;;;;1.42;1.40;;;8.70;99.90;;;;;;5026796;28;20209;-81
2023/10/24 05:05:21;;;;;;;3.92;3.72;;;8.80;99.90;;;;;;5024819;28;20213;-79
2023/10/24 05:07:48;;;;;;;1.42;1.38;;;8.80;99.90;;;;;;5021975;28;20288;-81
2023/10/24 05:10:15;;;;;;;1.05;1.05;;;8.90;99.90;;;;;;5024468;28;20214;-88
2023/10/24 05:12:42;;;;;;;4.10;3.15;;;8.90;99.90;;;;;;5025353;28;20220;-83
2023/10/24 05:15:09;;;;;;;11.63;3.58;;;8.90;99.90;;;;;;5023385;28;20285;-81
2023/10/24 05:17:37;;;;;;;2.00;1.90;;;9.00;99.90;;;;;;5024365;28;20236;-79
2023/10/24 05:20:07;;;;;;;2.88;2.78;;;9.00;99.90;;;;;;5030461;28;20248;-84
2023/10/24 05:22:34;;;;;;;4.88;2.42;;;8.90;99.90;;;;;;5027389;28;20272;-82
2023/10/24 05:25:02;;;;;;;2.75;2.65;;;8.90;99.90;;;;;;5019600;28;20201;-82
2023/10/24 05:27:31;;;;;;;4.07;3.83;;;8.80;99.90;;;;;;5016215;28;20466;-82
2023/10/24 05:29:58;;;;;;;2.75;2.65;;;8.90;99.90;;;;;;5016354;28;20206;-79
2023/10/24 05:32:25;;;;;;;1.63;1.60;;;8.90;99.90;;;;;;5019208;28;20711;-78
2023/10/24 05:34:53;;;;;;;2.15;2.05;;;8.80;99.90;;;;;;5019316;28;20213;-81
2023/10/24 05:37:19;;;;;;;2.80;2.60;;;8.70;99.90;;;;;;5018483;28;20230;-77
2023/10/24 05:39:47;;;;;;;4.85;4.45;;;8.70;99.90;;;;;;5018985;28;20490;-78
2023/10/24 05:42:14;;;;;;;4.85;4.50;;;8.70;99.90;;;;;;5022853;28;20450;-79
2023/10/24 05:44:40;;;;;;;0.80;0.80;;;8.70;99.90;;;;;;5021330;28;20367;-83
2023/10/24 05:47:09;;;;;;;1.45;1.42;;;8.60;99.90;;;;;;5019532;28;20209;-80
2023/10/24 05:49:36;;;;;;;2.38;2.17;;;8.50;99.90;;;;;;5020619;28;20227;-80
2023/10/24 05:52:03;;;;;;;2.05;1.90;;;8.50;99.90;;;;;;5023648;28;20228;-81
2023/10/24 05:54:31;;;;;;;3.15;2.95;;;8.50;99.90;;;;;;5023387;28;20209;-78
2023/10/24 05:56:58;;;;;;;1.73;1.63;;;8.50;99.90;;;;;;5026471;28;20295;-80
2023/10/24 05:59:26;;;;;;;2.45;2.25;;;8.60;99.90;;;;;;5024465;28;20403;-85
2023/10/24 06:01:53;;;;;;;1.77;1.67;;;8.60;99.90;;;;;;5020546;28;20580;-80
2023/10/24 06:04:21;;;;;;;3.67;3.47;;;8.70;99.90;;;;;;5031913;28;20269;-84
2023/10/24 06:06:48;;;;;;;1.13;1.13;;;8.70;99.90;;;;;;5030674;28;20385;-79
2023/10/24 06:09:14;;;;;;;1.23;1.23;;;8.80;99.90;;;;;;5018571;28;20208;-79
2023/10/24 06:11:42;;;;;;;4.20;3.90;;;8.80;99.90;;;;;;5028414;28;20276;-79
2023/10/24 06:14:09;;;;;;;2.35;2.25;;;8.80;99.90;;;;;;5022561;28;20205;-79
2023/10/24 06:16:36;;;;;;;2.45;2.25;;;8.90;99.90;;;;;;5026950;28;20201;-80
2023/10/24 06:19:03;;;;;;;3.70;3.50;;;9.00;99.90;;;;;;5026272;28;20231;-81
2023/10/24 06:21:30;;;;;;;1.55;1.45;;;9.00;99.90;;;;;;5016475;28;20513;-79
2023/10/24 06:23:57;;;;;;;2.05;1.95;;;9.00;99.90;;;;;;5017668;28;20272;-80
2023/10/24 06:26:26;;;;;;;3.35;3.22;;;9.10;99.90;;;;;;5021431;28;20233;-81
2023/10/24 06:28:52;;;;;;;3.03;2.88;;;9.20;99.90;;;;;;5028014;28;20282;-82
2023/10/24 06:31:20;;;;;;;3.50;3.20;;;9.20;99.90;;;;;;5017795;28;20535;-79
2023/10/24 06:33:47;;;;;;;2.08;1.98;;;9.20;99.90;;;;;;5029534;28;20240;-84
2023/10/24 06:36:14;;;;;;;3.00;2.80;;;9.20;99.90;;;;;;5028597;28;20497;-87
2023/10/24 06:38:41;;;;;;;2.35;2.15;;;9.40;99.90;;;;;;5026786;28;20301;-80
2023/10/24 06:41:08;;;;;;;3.70;3.42;;;9.30;99.90;;;;;;5030295;28;20221;-79
2023/10/24 06:43:36;;;;;;;4.25;4.05;;;9.40;99.90;;;;;;5019478;28;20215;-84
2023/10/24 06:46:04;;;;;;;2.08;1.98;;;9.40;99.90;;;;;;5025147;28;20525;-79
2023/10/24 06:48:32;;;;;;;2.35;2.25;;;9.60;99.90;;;;;;5020131;28;20216;-78
2023/10/24 06:50:59;;;;;;;2.78;2.67;;;9.70;99.90;;;;;;5018288;28;20205;-79
2023/10/24 06:53:26;;;;;;;3.63;3.40;;;9.80;99.90;;;;;;5025304;28;20220;-87
2023/10/24 06:56:00;;;;;;;5.55;5.25;;;9.80;99.90;;;;;;5026491;28;20438;-78
2023/10/24 06:58:28;;;;;;;3.60;3.30;;;9.80;99.90;;;;;;5026807;28;20270;-78
2023/10/24 07:00:55;;;;;;;3.53;3.33;;;9.80;99.90;;;;;;5027699;28;20257;-79
2023/10/24 07:03:23;;;;;;;2.63;2.42;;;9.80;99.90;;;;;;5019342;28;20616;-80
2023/10/24 07:05:54;;;;;;;3.70;3.50;;;9.90;99.90;;;;;;5023081;28;20281;-83
2023/10/24 07:08:21;;;;;;;2.47;2.38;;;9.80;99.90;;;;;;5025761;28;20197;-80
2023/10/24 07:10:48;;;;;;;2.08;1.98;;;10.10;99.90;;;;;;5022108;28;20208;-79
2023/10/24 07:13:16;;;;;;;1.65;1.55;;;10.30;99.90;;;;;;5018063;28;20240;-80
2023/10/24 07:15:43;;;;;;;1.13;1.13;;;10.40;99.90;;;;;;5023451;28;20209;-82
2023/10/24 07:18:11;;;;;;;0.88;0.88;;;10.70;99.90;;;;;;5020788;28;20229;-82
2023/10/24 07:20:38;;;;;;;1.13;1.13;;;11.40;99.90;;;;;;5037773;28;20228;-80
2023/10/24 07:23:06;;;;;;;2.63;2.53;;;11.50;99.90;;;;;;5034677;28;20198;-78
2023/10/24 07:25:33;;;;;;;0.93;0.93;;;11.70;99.90;;;;;;5025821;28;20521;-79
2023/10/24 07:28:01;;;;;;;2.92;2.83;;;12.40;99.90;;;;;;5029083;28;20240;-79
2023/10/24 07:30:29;;;;;;;1.17;1.17;;;12.90;99.90;;;;;;5028332;28;20220;-85
2023/10/24 07:32:56;;;;;;;7.70;3.08;;;12.40;99.90;;;;;;5011020;28;20506;-80
2023/10/24 07:35:23;;;;;;;1.90;1.80;;;12.60;99.90;;;;;;5020955;28;20201;-81
2023/10/24 07:37:50;;;;;;;2.45;2.35;;;12.90;99.90;;;;;;5028272;28;20271;-83
2023/10/24 07:40:18;;;;;;;3.13;2.97;;;12.20;99.90;;;;;;5022927;28;20208;-80
2023/10/24 07:42:45;;;;;;;3.28;3.10;;;12.00;99.90;;;;;;5032314;28;20197;-88
2023/10/24 07:45:12;;;;;;;4.28;4.05;;;12.10;99.90;;;;;;5018015;28;20247;-79
2023/10/24 07:47:39;;;;;;;3.65;3.35;;;12.40;99.90;;;;;;5022893;28;20209;-81
2023/10/24 07:50:09;;;;;;;5.22;3.83;;;12.50;99.90;;;;;;5019275;28;20205;-80
2023/10/24 07:52:36;;;;;;;2.83;2.15;;;12.60;99.90;;;;;;5018217;28;20293;-82
2023/10/24 07:55:04;;;;;;;1.17;1.17;;;12.40;99.90;;;;;;5013208;28;20205;-82
2023/10/24 07:57:31;;;;;;;1.60;1.60;;;12.40;99.90;;;;;;5031836;28;20264;-82
2023/10/24 07:59:58;;;;;;;3.92;3.72;;;12.30;99.90;;;;;;5031201;28;20221;-79
2023/10/24 08:02:25;;;;;;;1.20;1.20;;;12.30;99.90;;;;;;5028168;28;20240;-80
2023/10/24 08:04:52;;;;;;;2.35;2.25;;;12.80;99.90;;;;;;5033856;28;20251;-81
2023/10/24 08:07:19;;;;;;;1.15;1.15;;;12.90;99.90;;;;;;5026428;28;20206;-80
2023/10/24 08:09:47;;;;;;;2.35;2.25;;;12.80;99.90;;;;;;5030568;28;20521;-79
2023/10/24 08:12:13;;;;;;;2.45;2.35;;;13.20;99.90;;;;;;5026193;28;20232;-78
2023/10/24 08:14:41;;;;;;;1.23;1.23;;;13.20;99.90;;;;;;5017918;28;20235;-82
2023/10/24 08:17:08;;;;;;;6.18;4.03;;;13.30;99.90;;;;;;5015682;28;20495;-79
2023/10/24 08:19:35;;;;;;;3.65;3.35;;;13.20;99.90;;;;;;5028378;28;20432;-82
2023/10/24 08:22:02;;;;;;;0.90;0.90;;;13.20;99.90;;;;;;5035990;28;20250;-84
2023/10/24 08:24:29;;;;;;;3.63;3.38;;;13.40;99.90;;;;;;5043498;28;20207;-81
2023/10/24 08:26:56;;;;;;;1.53;1.53;;;13.30;99.90;;;;;;5037225;28;20217;-81
2023/10/24 08:29:37;;;;;;;1.88;1.77;;;13.10;99.90;;;;;;5042987;28;20434;-83
2023/10/24 08:32:04;;;;;;;2.33;2.23;;;13.20;99.90;;;;;;5037370;28;20513;-88
2023/10/24 08:34:41;;;;;;;3.67;3.47;;;13.00;99.90;;;;;;5027614;28;20437;-79
2023/10/24 08:37:09;;;;;;;1.53;1.53;;;13.20;99.90;;;;;;5028921;28;20443;-83
2023/10/24 08:39:35;;;;;;;1.10;1.10;;;13.30;99.90;;;;;;5023138;28;20451;-80
2023/10/24 08:42:03;;;;;;;2.57;2.30;;;13.50;99.90;;;;;;5031606;28;20445;-81
2023/10/24 08:44:32;;;;;;;1.43;1.43;;;13.50;99.90;;;;;;5030277;28;20515;-80
2023/10/24 08:47:01;;;;;;;3.17;2.90;;;13.70;99.90;;;;;;5028623;28;20516;-80
2023/10/24 08:49:29;;;;;;;1.40;1.30;;;13.70;99.90;;;;;;5019346;28;20416;-82
2023/10/24 08:51:57;;;;;;;2.53;2.43;;;13.50;99.90;;;;;;5028922;28;20417;-81
2023/10/24 08:54:24;;;;;;;7.10;4.33;;;13.80;99.90;;;;;;5021256;28;20438;-81
2023/10/24 08:56:51;;;;;;;2.20;2.10;;;13.40;99.90;;;;;;5027683;28;20414;-86
2023/10/24 08:59:21;;;;;;;1.97;1.87;;;13.50;99.90;;;;;;5021804;28;20530;-81
2023/10/24 09:01:51;;;;;;;2.37;1.67;;;13.50;99.90;;;;;;5021245;28;20463;-86
2023/10/24 09:04:18;;;;;;;1.60;1.50;;;13.40;99.90;;;;;;5015743;28;20519;-83
2023/10/24 09:06:46;;;;;;;5.43;3.00;;;13.40;99.90;;;;;;5023103;28;20445;-85
2023/10/24 09:09:14;;;;;;;4.47;4.13;;;13.50;99.90;;;;;;5025796;28;20206;-82
2023/10/24 09:11:58;;;;;;;2.07;1.97;;;13.50;99.90;;;;;;5027579;28;20205;-82
2023/10/24 09:14:28;;;;;;;3.50;3.30;;;13.30;99.90;;;;;;5028798;28;20424;-82
2023/10/24 09:17:13;;;;;;;1.70;1.63;;;13.30;99.90;;;;;;5022086;28;20205;-82
2023/10/24 09:19:41;;;;;;;2.97;2.78;;;13.40;99.90;;;;;;5021333;28;20407;-79
2023/10/24 09:22:09;;;;;;;1.05;1.05;;;13.40;99.90;;;;;;5026900;28;20206;-83
2023/10/24 09:24:36;;;;;;;1.70;1.67;;;13.40;99.90;;;;;;5034682;28;20303;-84
2023/10/24 09:27:04;;;;;;;2.60;1.98;;;13.50;99.90;;;;;;5034892;28;20284;-81
2023/10/24 09:29:32;;;;;;;0.93;0.93;;;13.50;99.90;;;;;;5031484;28;20527;-82
2023/10/24 09:31:59;;;;;;;1.93;1.83;;;13.70;99.90;;;;;;5015756;28;20459;-84
2023/10/24 09:34:31;;;;;;;2.67;2.57;;;13.80;99.90;;;;;;5020708;28;20590;-81
2023/10/24 09:37:10;;;;;;;1.92;1.83;;;13.90;99.90;;;;;;5020531;28;20435;-84
2023/10/24 09:39:57;;;;;;;3.77;3.47;;;14.00;99.90;;;;;;5023355;28;20577;-84
2023/10/24 09:42:26;;;;;;;0.80;0.80;;;13.80;99.90;;;;;;5024029;28;20405;-80
2023/10/24 09:45:00;;;;;;;2.50;2.40;;;14.00;99.90;;;;;;5021455;28;20418;-79
2023/10/24 09:47:31;;;;;;;2.60;2.50;;;13.90;99.90;;;;;;5021864;28;20633;-80
2023/10/24 09:49:59;;;;;;;4.97;4.67;;;14.00;99.90;;;;;;5032341;28;20477;-81
2023/10/24 09:52:28;;;;;;;5.80;5.40;;;14.00;99.90;;;;;;5032927;28;20816;-89
2023/10/24 09:54:58;;;;;;;1.97;1.87;;;14.30;99.90;;;;;;5028246;28;20839;-84
2023/10/24 09:57:27;;;;;;;1.97;1.87;;;14.10;99.90;;;;;;5019404;28;20460;-87
2023/10/24 09:59:58;;;;;;;4.00;3.80;;;14.20;99.90;;;;;;5029718;28;21101;-85
2023/10/24 10:02:26;;;;;;;1.20;1.20;;;14.50;99.90;;;;;;5022749;28;20869;-79
2023/10/24 10:04:54;;;;;;;1.83;1.73;;;14.70;99.90;;;;;;5029133;28;20431;-79
2023/10/24 10:07:25;;;;;;;2.47;2.37;;;14.50;99.90;;;;;;5028323;28;20778;-84
2023/10/24 10:09:54;;;;;;;2.37;2.27;;;14.40;99.90;;;;;;5023488;28;20462;-81
2023/10/24 10:12:23;;;;;;;1.00;1.00;;;14.20;99.90;;;;;;5011678;28;20425;-82
2023/10/24 10:15:17;;;;;;;1.17;1.17;;;14.30;99.90;;;;;;5018981;28;20466;-89
2023/10/24 10:18:04;;;;;;;1.90;1.80;;;14.40;99.90;;;;;;5021776;28;20468;-79
2023/10/24 10:20:51;;;;;;;2.07;1.97;;;14.50;99.90;;;;;;5014649;28;20446;-82
2023/10/24 10:23:57;;;;;;;2.93;2.83;;;14.70;99.90;;;;;;5016246;28;20633;-83
2023/10/24 10:26:30;;;;;;;2.63;2.53;;;14.70;99.90;;;;;;5007539;28;20566;-83
2023/10/24 10:29:06;;;;;;;1.60;1.43;;;14.80;99.90;;;;;;5021922;28;20449;-81
2023/10/24 10:32:00;;;;;;;1.93;1.83;;;14.80;99.90;;;;;;5003444;28;20479;-81
2023/10/24 10:34:50;;;;;;;3.10;2.83;;;14.90;99.90;;;;;;5043673;28;20421;-83
2023/10/24 10:37:17;;;;;;;4.83;4.53;;;14.80;99.90;;;;;;5039669;28;20562;-80
2023/10/24 10:40:16;;;;;;;1.90;1.70;;;15.00;99.90;;;;;;5030343;28;20509;-80
2023/10/24 10:42:48;;;;;;;3.83;3.53;;;14.90;99.90;;;;;;5017888;28;20515;-82
2023/10/24 10:45:26;;;;;;;1.73;1.63;;;14.80;99.90;;;;;;5026617;28;20470;-87
2023/10/24 10:47:59;;;;;;;2.10;2.00;;;14.90;99.90;;;;;;5019844;28;20493;-81
2023/10/24 10:50:37;;;;;;;2.73;2.63;;;15.00;99.90;;;;;;5021418;28;20840;-81
2023/10/24 10:53:16;;;;;;;2.73;2.50;;;15.10;99.90;;;;;;5021082;28;20542;-89
2023/10/24 10:56:13;;;;;;;0.93;0.93;;;15.10;99.90;;;;;;5033323;28;20461;-87
2023/10/24 10:58:40;;;;;;;3.00;2.80;;;15.00;99.90;;;;;;5037068;28;20548;-82
2023/10/24 11:01:30;;;;;;;2.60;2.50;;;15.00;99.90;;;;;;5029472;28;20618;-82
2023/10/24 11:03:58;;;;;;;0.80;0.80;;;15.00;99.90;;;;;;5004457;28;20433;-80
2023/10/24 11:06:27;;;;;;;0.80;0.80;;;15.20;99.90;;;;;;5025031;28;20414;-81
2023/10/24 11:09:10;;;;;;;0.80;0.80;;;15.20;99.90;;;;;;5028099;28;20449;-83
2023/10/24 11:11:38;;;;;;;1.70;1.60;;;15.30;99.90;;;;;;5019304;28;20459;-86
2023/10/24 11:14:19;;;;;;;1.00;1.00;;;15.40;99.90;;;;;;5016716;28;20523;-84
2023/10/24 11:16:48;;;;;;;3.07;2.90;;;15.30;99.90;;;;;;5034476;28;20404;-81
2023/10/24 11:19:20;;;;;;;1.10;1.10;;;15.60;99.90;;;;;;5021842;28;21080;-85
2023/10/24 11:21:49;;;;;;;6.23;5.80;;;15.70;99.90;;;;;;5019966;28;20457;-85
2023/10/24 11:24:22;;;;;;;1.00;1.00;;;15.60;99.90;;;;;;5018086;28;20421;-83
2023/10/24 11:26:56;;;;;;;1.70;1.60;;;15.50;99.90;;;;;;5016425;28;20502;-81
2023/10/24 11:29:23;;;;;;;1.07;1.07;;;15.50;99.90;;;;;;5013433;28;20800;-84
2023/10/24 11:31:50;;;;;;;0.87;0.87;;;15.50;99.90;;;;;;5021281;28;20739;-82
2023/10/24 11:34:18;;;;;;;1.77;1.77;;;15.30;99.90;;;;;;5034384;28;20433;-83
2023/10/24 11:36:46;;;;;;;0.57;0.57;;;15.40;99.90;;;;;;5019292;28;20430;-82
2023/10/24 11:39:14;;;;;;;2.60;2.40;;;15.40;99.90;;;;;;5025760;28;20464;-86
2023/10/24 11:41:43;;;;;;;2.23;2.07;;;15.60;99.90;;;;;;5018982;28;20643;-80
2023/10/24 11:44:15;;;;;;;1.33;0.97;;;15.60;99.90;;;;;;5014700;28;20453;-81
2023/10/24 11:46:44;;;;;;;0.70;0.70;;;15.50;99.90;;;;;;5022098;28;20417;-82
2023/10/24 11:49:11;;;;;;;2.80;2.60;;;15.50;99.90;;;;;;5018380;28;20428;-82
2023/10/24 11:51:38;;;;;;;1.23;1.23;;;15.70;99.90;;;;;;5019063;28;20607;-80
2023/10/24 11:54:08;;;;;;;1.00;1.00;;;15.70;99.90;;;;;;5027166;28;20505;-83
2023/10/24 11:56:35;;;;;;;0.70;0.70;;;15.80;99.90;;;;;;5037528;28;20511;-83
2023/10/24 11:59:04;;;;;;;6.13;5.73;;;15.90;99.90;;;;;;5023788;28;20479;-82
2023/10/24 12:01:32;;;;;;;4.57;4.20;;;15.90;99.90;;;;;;5022219;28;20745;-87
2023/10/24 12:04:00;;;;;;;1.87;1.80;;;15.90;99.90;;;;;;5019212;28;20453;-80
2023/10/24 12:06:29;;;;;;;1.53;0.83;;;15.90;99.90;;;;;;5027835;28;20540;-81
2023/10/24 12:08:57;;;;;;;0.93;0.93;;;15.80;99.90;;;;;;5026882;28;20443;-82
2023/10/24 12:11:25;;;;;;;0.93;0.93;;;15.80;99.90;;;;;;5028233;28;20629;-83
2023/10/24 12:13:52;;;;;;;3.53;3.23;;;15.70;99.90;;;;;;5030583;28;20662;-86
2023/10/24 12:16:20;;;;;;;1.87;1.77;;;15.80;99.90;;;;;;5037057;28;20616;-86
2023/10/24 12:18:47;;;;;;;1.13;1.07;;;15.90;99.90;;;;;;5019931;28;20418;-79
2023/10/24 12:21:14;;;;;;;0.70;0.70;;;16.00;99.90;;;;;;5021112;28;21031;-81
2023/10/24 12:23:41;;;;;;;3.43;3.23;;;16.00;99.90;;;;;;5035696;28;20697;-84
2023/10/24 12:26:08;;;;;;;6.33;2.40;;;16.00;99.90;;;;;;5028370;28;20457;-80
2023/10/24 12:28:42;;;;;;;2.60;2.50;;;16.10;99.90;;;;;;5038375;28;20439;-79
2023/10/24 12:31:13;;;;;;;2.10;1.90;;;16.00;99.90;;;;;;5022766;28;20404;-80
2023/10/24 12:33:40;;;;;;;1.80;1.70;;;16.00;99.90;;;;;;5030758;28;20441;-81
2023/10/24 12:36:07;;;;;;;0.93;0.90;;;16.10;99.90;;;;;;5031612;28;20441;-81
2023/10/24 12:38:37;;;;;;;1.77;1.67;;;16.10;99.90;;;;;;5036305;28;20438;-80
2023/10/24 12:41:04;;;;;;;1.57;1.50;;;16.00;99.90;;;;;;5031980;28;20430;-81
2023/10/24 12:43:31;;;;;;;0.70;0.70;;;16.10;99.90;;;;;;5027315;28;20421;-81
2023/10/24 12:45:59;;;;;;;6.33;3.80;;;16.00;99.90;;;;;;5035493;28;20501;-79
2023/10/24 12:48:25;;;;;;;2.20;2.10;;;16.10;99.90;;;;;;5029883;28;20452;-83
2023/10/24 12:50:53;;;;;;;2.60;2.40;;;16.10;99.90;;;;;;5026514;28;20421;-79
2023/10/24 12:53:20;;;;;;;1.60;1.50;;;16.20;99.90;;;;;;5021201;28;20449;-82
2023/10/24 12:55:47;;;;;;;3.30;1.80;;;16.20;99.90;;;;;;5026654;28;20431;-77
2023/10/24 12:58:14;;;;;;;1.57;1.57;;;16.20;99.90;;;;;;5046866;28;20484;-80
2023/10/24 13:00:45;;;;;;;0.70;0.70;;;16.10;99.90;;;;;;5038463;28;20486;-80